Flight Track Log - Related Links

Times and Time Zones

All times are in EDT time to prevent confusion due to time zone crossing. See the SWA4115 flight status page for this flight to view local times or setup timezone preferences in your user account.

Time Position Orientation Groundspeed Altitude Reporting Facility
EDT Latitude Longitude Course Direction KTS MPH feet Rate Location/Type
Sat 08:19:20 PM 28.3667 -81.2833 156° South 195 224 2,100  Level Orlando TRACON
Sat 08:20:20 PM 28.3500 -81.2167 106° East 249 287 4,500 2,356 Climbing Orlando TRACON
Sat 08:22:03 PM 28.4222 -81.1767 26° Northeast 271 312 8,500 2,319 Climbing Jacksonville Center
Sat 08:23:03 PM 28.5061 -81.1989 347° North 278 320 10,800 2,650 Climbing Jacksonville Center
Sat 08:24:03 PM 28.6025 -81.2256 346° North 319 367 13,800 3,150 Climbing Jacksonville Center
Sat 08:25:03 PM 28.7031 -81.2547 346° North 342 394 17,100 3,300 Climbing Jacksonville Center
Sat 08:26:03 PM 28.8033 -81.2767 349° North 359 413 20,400 2,700 Climbing Jacksonville Center
Sat 08:27:03 PM 28.9100 -81.2939 352° North 372 428 22,500 1,950 Climbing Jacksonville Center
Sat 08:28:03 PM 29.0250 -81.3064 355° North 391 450 24,300 1,850 Climbing Jacksonville Center
Sat 08:29:03 PM 29.1442 -81.3281 351° North 413 475 26,200 1,900 Climbing Jacksonville Center
Sat 08:30:03 PM 29.2614 -81.3478 352° North 425 489 28,100 1,600 Climbing Jacksonville Center
Sat 08:31:03 PM 29.3828 -81.3650 353° North 432 497 29,400 1,450 Climbing Jacksonville Center
Sat 08:32:03 PM 29.5206 -81.3867 352° North 443 510 31,000 1,750 Climbing Jacksonville Center
Sat 08:33:03 PM 29.6442 -81.4061 352° North 448 516 32,900 1,750 Climbing Jacksonville Center
Sat 08:34:03 PM 29.7694 -81.4233 353° North 448 516 34,500 1,500 Climbing Jacksonville Center
Sat 08:35:03 PM 29.8908 -81.4431 352° North 448 516 35,900 1,350 Climbing Jacksonville Center
Sat 08:36:03 PM 30.0142 -81.4606 353° North 448 516 37,200 1,200 Climbing Jacksonville Center
Sat 08:37:03 PM 30.1272 -81.4781 352° North 453 521 38,300 900 Climbing Jacksonville Center
Sat 08:38:03 PM 30.2506 -81.4978 352° North 448 516 39,000 350 Climbing Jacksonville Center
Sat 08:39:03 PM 30.3758 -81.5033 358° North 448 516 39,000  Level Jacksonville Center
Sat 08:40:03 PM 30.4944 -81.4581 18° North 428 493 39,000  Level Jacksonville Center
Sat 08:41:03 PM 30.6064 -81.4058 22° Northeast 428 493 39,000  Level Jacksonville Center
Sat 08:42:03 PM 30.7208 -81.3533 22° Northeast 434 499 39,000  Level Jacksonville Center
Sat 08:43:03 PM 30.8350 -81.3006 22° Northeast 439 505 39,000  Level Jacksonville Center
Sat 08:44:03 PM 30.9492 -81.2453 23° Northeast 439 505 39,000  Level Jacksonville Center
Sat 08:45:03 PM 31.0653 -81.1925 21° North 439 505 39,000  Level Jacksonville Center
Sat 08:46:03 PM 31.1794 -81.1394 22° Northeast 439 505 39,000  Level Jacksonville Center
Sat 08:47:03 PM 31.2892 -81.0864 22° Northeast 433 498 39,000  Level Jacksonville Center
Sat 08:48:03 PM 31.4094 -81.0281 22° Northeast 426 490 39,000  Level Jacksonville Center
Sat 08:49:03 PM 31.5214 -80.9744 22° Northeast 431 496 39,000  Level Jacksonville Center
Sat 08:50:03 PM 31.6211 -80.9261 22° Northeast 431 496 39,000  Level Jacksonville Center
Sat 08:51:03 PM 31.7392 -80.8700 22° Northeast 426 490 39,000  Level Jacksonville Center
Sat 08:52:03 PM 31.8386 -80.8236 22° Northeast 426 490 39,000  Level Jacksonville Center
Sat 08:53:03 PM 31.9567 -80.7647 23° Northeast 426 490 39,000  Level Jacksonville Center
Sat 08:54:03 PM 32.0642 -80.7133 22° Northeast 418 481 39,000  Level Jacksonville Center
Sat 08:55:03 PM 32.1594 -80.6667 23° Northeast 413 475 39,000  Level Jacksonville Center
Sat 08:56:03 PM 32.2650 -80.6150 22° Northeast 413 475 39,000  Level Jacksonville Center
Sat 08:57:59 PM 32.4667 -80.5122 23° Northeast 409 471 39,000  Level Washington Center
Sat 08:58:59 PM 32.5717 -80.4611 22° Northeast 409 471 39,000  Level Washington Center
Sat 09:00:02 PM 32.6792 -80.4106 22° Northeast 409 471 39,000  Level Washington Center
Sat 09:01:03 PM 32.7906 -80.3597 21° North 408 470 39,000  Level Jacksonville Center
Sat 09:02:03 PM 32.8939 -80.3097 22° Northeast 408 470 39,000  Level Jacksonville Center
Sat 09:03:03 PM 33.0075 -80.2519 23° Northeast 418 481 39,000  Level Jacksonville Center
Sat 09:04:03 PM 33.1169 -80.1967 23° Northeast 418 481 39,000  Level Jacksonville Center
Sat 09:05:03 PM 33.2386 -80.1383 22° Northeast 420 483 39,000  Level Jacksonville Center
Sat 09:06:03 PM 33.3439 -80.0856 23° Northeast 420 483 39,000  Level Jacksonville Center
Sat 09:07:03 PM 33.4492 -80.0322 23° Northeast 420 483 39,000  Level Jacksonville Center
Sat 09:08:03 PM 33.5586 -79.9789 22° Northeast 415 478 39,000  Level Jacksonville Center
Sat 09:09:03 PM 33.6681 -79.9231 23° Northeast 410 472 39,000  Level Jacksonville Center
Sat 09:10:03 PM 33.7753 -79.8694 23° Northeast 410 472 39,000  Level Jacksonville Center
Sat 09:11:03 PM 33.8822 -79.8131 24° Northeast 410 472 39,000  Level Jacksonville Center
Sat 09:12:03 PM 33.9894 -79.7617 22° Northeast 410 472 39,000  Level Jacksonville Center
Sat 09:13:03 PM 34.0947 -79.7078 23° Northeast 410 472 39,000  Level Jacksonville Center
Sat 09:14:03 PM 34.1994 -79.6514 24° Northeast 410 472 39,000  Level Jacksonville Center
Sat 09:16:27 PM 34.4356 -79.5325 23° Northeast 411 473 39,000  Level Washington Center
Sat 09:17:28 PM 34.5411 -79.4817 22° Northeast 409 471 39,000  Level Washington Center
Sat 09:18:29 PM 34.6436 -79.4272 24° Northeast 408 470 39,000  Level Washington Center
Sat 09:19:32 PM 34.7656 -79.3650 23° Northeast 400 460 39,000  Level Washington Center
Sat 09:20:34 PM 34.8689 -79.3111 23° Northeast 401 461 39,000  Level Washington Center
Sat 09:21:35 PM 34.9717 -79.2578 23° Northeast 401 461 39,000  Level Washington Center
Sat 09:22:36 PM 35.0744 -79.2031 24° Northeast 401 461 39,000  Level Washington Center
Sat 09:23:36 PM 35.1783 -79.1494 23° Northeast 401 461 39,000  Level Washington Center
Sat 09:24:40 PM 35.2750 -79.0719 33° Northeast 414 476 39,000  Level Washington Center
Sat 09:25:41 PM 35.3711 -78.9919 34° Northeast 414 476 39,000  Level Washington Center
Sat 09:26:42 PM 35.4678 -78.9128 34° Northeast 414 476 39,000  Level Washington Center
Sat 09:27:43 PM 35.5639 -78.8303 35° Northeast 417 480 39,000  Level Washington Center
Sat 09:28:44 PM 35.6614 -78.7489 34° Northeast 418 481 39,000  Level Washington Center
Sat 09:29:45 PM 35.7592 -78.6664 34° Northeast 419 482 39,000  Level Washington Center
Sat 09:30:46 PM 35.8558 -78.5831 35° Northeast 419 482 39,000  Level Washington Center
Sat 09:31:50 PM 35.9728 -78.4842 34° Northeast 420 483 39,000  Level Washington Center
Sat 09:32:51 PM 36.0678 -78.4014 35° Northeast 420 483 39,000  Level Washington Center
Sat 09:33:51 PM 36.1619 -78.3208 35° Northeast 419 482 39,000  Level Washington Center
Sat 09:34:53 PM 36.2558 -78.2400 35° Northeast 414 476 39,000  Level Washington Center
Sat 09:35:53 PM 36.3494 -78.1597 35° Northeast 412 474 39,000  Level Washington Center
Sat 09:36:54 PM 36.4403 -78.0794 35° Northeast 412 474 39,000  Level Washington Center
Sat 09:37:58 PM 36.5331 -77.9992 35° Northeast 412 474 39,000  Level Washington Center
Sat 09:38:59 PM 36.6269 -77.9175 35° Northeast 412 474 39,000  Level Washington Center
Sat 09:39:59 PM 36.7383 -77.8200 35° Northeast 412 474 39,000  Level Washington Center
Sat 09:41:01 PM 36.8308 -77.7375 36° Northeast 412 474 39,000  Level Washington Center
Sat 09:42:01 PM 36.9239 -77.6567 35° Northeast 411 473 39,000  Level Washington Center
Sat 09:43:05 PM 37.0158 -77.5744 36° Northeast 410 472 39,000  Level Washington Center
Sat 09:44:06 PM 37.1097 -77.4919 35° Northeast 411 473 39,000  Level Washington Center
Sat 09:45:06 PM 37.2025 -77.4094 35° Northeast 411 473 39,000  Level Washington Center
Sat 09:46:08 PM 37.2972 -77.3258 35° Northeast 413 475 39,000  Level Washington Center
Sat 09:47:09 PM 37.3928 -77.2417 35° Northeast 414 476 39,000  Level Washington Center
Sat 09:48:10 PM 37.5064 -77.1361 36° Northeast 432 497 39,000  Level Washington Center
Sat 09:49:12 PM 37.6072 -77.0469 35° Northeast 428 493 39,000  Level Washington Center
Sat 09:50:12 PM 37.7036 -76.9606 35° Northeast 427 491 39,000  Level Washington Center
Sat 09:51:15 PM 37.7978 -76.8756 35° Northeast 421 484 39,000  Level Washington Center
Sat 09:52:17 PM 37.8906 -76.7914 36° Northeast 417 480 39,000  Level Washington Center
Sat 09:53:16 PM 37.9828 -76.7064 36° Northeast 416 479 39,000  Level Washington Center
Sat 09:54:19 PM 38.0750 -76.6225 36° Northeast 415 478 39,000  Level Washington Center
Sat 09:55:20 PM 38.1672 -76.5389 35° Northeast 414 476 39,000  Level Washington Center
Sat 09:56:20 PM 38.2644 -76.4697 29° Northeast 410 472 39,000  Level Washington Center
Sat 09:57:23 PM 38.3664 -76.4203 21° North 403 464 39,000  Level Washington Center
Sat 09:58:24 PM 38.4897 -76.3508 24° Northeast 403 464 39,000  Level Washington Center
Sat 09:59:26 PM 38.5953 -76.2925 23° Northeast 405 466 39,000  Level Washington Center
Sat 10:00:26 PM 38.6978 -76.2344 24° Northeast 405 466 39,000  Level Washington Center
Sat 10:01:27 PM 38.8036 -76.1742 24° Northeast 410 472 39,000  Level Washington Center
Sat 10:02:27 PM 38.9094 -76.1150 24° Northeast 419 482 39,000  Level Washington Center
Sat 10:03:29 PM 39.0183 -76.0544 23° Northeast 421 484 39,000  Level Washington Center
Sat 10:04:30 PM 39.1256 -75.9939 24° Northeast 423 487 39,000  Level Washington Center
Sat 10:05:34 PM 39.2542 -75.9203 24° Northeast 423 487 39,000  Level Washington Center
Sat 10:06:34 PM 39.3608 -75.8589 24° Northeast 423 487 39,000  Level Washington Center
Sat 10:07:35 PM 39.4686 -75.7978 24° Northeast 422 486 39,000  Level Washington Center
Sat 10:08:35 PM 39.5764 -75.7356 24° Northeast 422 486 39,000  Level Washington Center
Sat 10:09:39 PM 39.6842 -75.6731 24° Northeast 423 487 39,000  Level Washington Center
Sat 10:10:39 PM 39.7939 -75.6097 24° Northeast 425 489 39,000  Level Washington Center
Sat 10:11:48 PM 39.9250 -75.5331 24° Northeast 428 493 39,000  Level New York Center
Sat 10:12:49 PM 40.0353 -75.4686 24° Northeast 428 493 39,000  Level New York Center
Sat 10:13:52 PM 40.1450 -75.4042 24° Northeast 429 494 39,000  Level New York Center
Sat 10:14:51 PM 40.2606 -75.3347 25° Northeast 428 493 39,000  Level New York Center
Sat 10:15:53 PM 40.3683 -75.2694 25° Northeast 427 491 39,000  Level New York Center
Sat 10:16:51 PM 40.4783 -75.2047 24° Northeast 431 496 39,000  Level New York Center
Sat 10:17:55 PM 40.5803 -75.1442 24° Northeast 428 493 39,000  Level New York Center
Sat 10:18:54 PM 40.6897 -75.0792 24° Northeast 430 495 39,000  Level New York Center
Sat 10:19:56 PM 40.8053 -75.0094 25° Northeast 429 494 39,000  Level New York Center
Sat 10:20:58 PM 40.9128 -74.9450 24° Northeast 429 494 39,000  Level New York Center
Sat 10:21:58 PM 41.0128 -74.8850 24° Northeast 424 488 39,000  Level New York Center
Sat 10:22:58 PM 41.1208 -74.8189 25° Northeast 425 489 39,000  Level New York Center
Sat 10:24:02 PM 41.2511 -74.7406 24° Northeast 427 491 39,000  Level New York Center
Sat 10:25:02 PM 41.3422 -74.6836 25° Northeast 428 493 39,000  Level New York Center
Sat 10:26:02 PM 41.4519 -74.6161 25° Northeast 432 497 39,000  Level New York Center
Sat 10:27:04 PM 41.5719 -74.5422 25° Northeast 438 504 39,000  Level New York Center
Sat 10:28:04 PM 41.6833 -74.4736 25° Northeast 438 504 39,000 -397 Level New York Center
Sat 10:29:05 PM 41.7942 -74.4050 25° Northeast 439 505 38,200 -1,033 Descending New York Center
Sat 10:30:06 PM 41.9039 -74.3372 25° Northeast 437 503 36,900 -1,122 Descending New York Center
Sat 10:31:08 PM 42.0058 -74.2431 34° Northeast 446 513 35,900 -1,645 Descending New York Center
Sat 10:32:10 PM 42.1056 -74.1372 38° Northeast 454 522 33,500 -2,000 Descending New York Center
Sat 10:33:11 PM 42.2292 -74.0131 37° Northeast 459 528 31,800 -1,328 Descending New York Center
Sat 10:34:12 PM 42.3303 -73.9081 38° Northeast 459 528 30,800 -1,033 Descending New York Center
Sat 10:35:13 PM 42.4347 -73.8000 37° Northeast 467 537 29,700 -1,180 Descending New York Center
Sat 10:36:14 PM 42.5125 -73.6561 54° Northeast 478 550 28,400 -1,131 Descending New York Center
Sat 10:37:15 PM 42.5469 -73.4878 74° East 467 537 27,400 -1,042 Descending New York Center
Sat 10:38:38 PM 42.5972 -73.2511 74° East 465 535 25,900 -1,034 Descending Boston Center
Sat 10:39:40 PM 42.6322 -73.0850 74° East 455 524 24,900 -1,632 Descending Boston Center
Sat 10:40:43 PM 42.6661 -72.9206 74° East 445 512 22,500 -2,262 Descending Boston Center
Sat 10:41:42 PM 42.6983 -72.7650 74° East 434 499 20,300 -1,966 Descending Boston Center
Sat 10:42:42 PM 42.7289 -72.6128 75° East 418 481 18,600 -2,000 Descending Boston Center
Sat 10:43:42 PM 42.7589 -72.4667 74° East 405 466 16,300 -2,281 Descending Boston Center
Sat 10:44:43 PM 42.7875 -72.3256 75° East 395 455 14,000 -2,311 Descending Boston Center
Sat 10:45:44 PM 42.8033 -72.1725 82° East 376 433 11,600 -1,983 Descending Boston Center
Sat 10:46:44 PM 42.8153 -72.0381 83° East 361 415 10,000 -1,240 Descending Boston Center
Sat 10:47:45 PM 42.8503 -71.9308 66° East 312 359 9,100 -1,065 Descending Boston Center
Sat 10:48:48 PM 42.8878 -71.8250 64° Northeast 288 331 7,800 -1,597 Descending Boston Center
Sat 10:49:49 PM 42.9194 -71.7317 65° Northeast 275 316 5,800 -1,450 Descending Boston Center
Sat 10:50:48 PM 42.9500 -71.6442 64° Northeast 258 297 4,900 -843 Descending Boston Center
Sat 10:51:50 PM 42.9731 -71.5764 65° Northeast 199 229 4,100 -1,050 Descending Boston Center
Sat 10:52:48 PM 42.9942 -71.5139 65° Northeast 187 215 2,800 -1,339 Descending Boston Center
Sat 10:53:51 PM 42.9847 -71.4628 104° East 173 199 1,400 -1,122 Descending Boston Center
Sat 10:54:51 PM 42.9494 -71.4442 159° South 138 159 500 -900 Descending Boston Center
Sat 10:56:00 PM 42.9328 -71.4358 316° Northwest  Level Estimated
Sat 11:03:00 PM 42.9328 -71.4358 316° Northwest  Level Estimated

Login

Don't have an account? Register now (free) for customized features, flight alerts, and more!